sensor_id;sensor_type;location;lat;lon;timestamp;pressure;altitude;pressure_sealevel;temperature;humidity
63715;BME280;49858;48.956;9.076;2023-04-25T00:01:32;98150.41;;;9.84;100.00
63715;BME280;49858;48.956;9.076;2023-04-25T00:04:04;98145.22;;;10.02;100.00
63715;BME280;49858;48.956;9.076;2023-04-25T00:06:34;98147.13;;;9.98;100.00
63715;BME280;49858;48.956;9.076;2023-04-25T00:09:02;98141.06;;;10.12;100.00
63715;BME280;49858;48.956;9.076;2023-04-25T00:11:33;98139.97;;;10.39;100.00
63715;BME280;49858;48.956;9.076;2023-04-25T00:14:02;98136.88;;;10.41;100.00
63715;BME280;49858;48.956;9.076;2023-04-25T00:16:30;98135.31;;;10.96;100.00
63715;BME280;49858;48.956;9.076;2023-04-25T00:19:00;98131.03;;;10.72;100.00
63715;BME280;49858;48.956;9.076;2023-04-25T00:21:30;98129.31;;;10.61;100.00
63715;BME280;49858;48.956;9.076;2023-04-25T00:23:59;98132.78;;;10.84;100.00
63715;BME280;49858;48.956;9.076;2023-04-25T00:26:27;98121.72;;;10.81;100.00
63715;BME280;49858;48.956;9.076;2023-04-25T00:28:55;98116.66;;;10.83;100.00
63715;BME280;49858;48.956;9.076;2023-04-25T00:31:23;98122.66;;;10.35;100.00
63715;BME280;49858;48.956;9.076;2023-04-25T00:33:51;98119.94;;;10.65;100.00
63715;BME280;49858;48.956;9.076;2023-04-25T00:36:19;98130.81;;;10.09;100.00
63715;BME280;49858;48.956;9.076;2023-04-25T00:38:49;98138.56;;;9.80;100.00
63715;BME280;49858;48.956;9.076;2023-04-25T00:41:16;98138.81;;;9.33;100.00
63715;BME280;49858;48.956;9.076;2023-04-25T00:43:45;98137.56;;;9.50;100.00
63715;BME280;49858;48.956;9.076;2023-04-25T00:46:14;98135.66;;;9.73;100.00
63715;BME280;49858;48.956;9.076;2023-04-25T00:48:42;98125.19;;;9.59;100.00
63715;BME280;49858;48.956;9.076;2023-04-25T00:51:13;98133.09;;;9.61;100.00
63715;BME280;49858;48.956;9.076;2023-04-25T00:53:45;98126.28;;;9.55;100.00
63715;BME280;49858;48.956;9.076;2023-04-25T00:56:18;98130.69;;;9.59;100.00
63715;BME280;49858;48.956;9.076;2023-04-25T00:58:47;98121.06;;;9.69;100.00
63715;BME280;49858;48.956;9.076;2023-04-25T01:01:16;98119.88;;;9.89;100.00
63715;BME280;49858;48.956;9.076;2023-04-25T01:03:46;98117.91;;;9.90;100.00
63715;BME280;49858;48.956;9.076;2023-04-25T01:06:14;98114.03;;;9.48;100.00
63715;BME280;49858;48.956;9.076;2023-04-25T01:08:42;98109.25;;;9.65;100.00
63715;BME280;49858;48.956;9.076;2023-04-25T01:11:10;98115.88;;;9.64;100.00
63715;BME280;49858;48.956;9.076;2023-04-25T01:13:39;98104.97;;;10.13;100.00
63715;BME280;49858;48.956;9.076;2023-04-25T01:16:07;98098.50;;;10.25;100.00
63715;BME280;49858;48.956;9.076;2023-04-25T01:18:36;98101.13;;;10.18;100.00
63715;BME280;49858;48.956;9.076;2023-04-25T01:21:08;98102.53;;;10.58;100.00
63715;BME280;49858;48.956;9.076;2023-04-25T01:23:37;98102.94;;;9.87;100.00
63715;BME280;49858;48.956;9.076;2023-04-25T01:26:06;98106.44;;;9.61;100.00
63715;BME280;49858;48.956;9.076;2023-04-25T01:28:37;98108.84;;;9.43;100.00
63715;BME280;49858;48.956;9.076;2023-04-25T01:31:08;98116.72;;;9.26;100.00
63715;BME280;49858;48.956;9.076;2023-04-25T01:33:37;98112.25;;;9.37;100.00
63715;BME280;49858;48.956;9.076;2023-04-25T01:36:05;98101.72;;;9.62;100.00
63715;BME280;49858;48.956;9.076;2023-04-25T01:38:35;98100.41;;;10.21;100.00
63715;BME280;49858;48.956;9.076;2023-04-25T01:41:03;98107.75;;;9.48;100.00
63715;BME280;49858;48.956;9.076;2023-04-25T01:43:32;98100.06;;;9.57;100.00
63715;BME280;49858;48.956;9.076;2023-04-25T01:46:01;98104.88;;;9.64;100.00
63715;BME280;49858;48.956;9.076;2023-04-25T01:48:29;98110.84;;;9.46;100.00
63715;BME280;49858;48.956;9.076;2023-04-25T01:50:56;98108.19;;;9.31;100.00
63715;BME280;49858;48.956;9.076;2023-04-25T01:53:25;98111.31;;;9.10;100.00
63715;BME280;49858;48.956;9.076;2023-04-25T01:55:54;98108.72;;;9.36;100.00
63715;BME280;49858;48.956;9.076;2023-04-25T01:58:24;98097.75;;;9.59;100.00
63715;BME280;49858;48.956;9.076;2023-04-25T02:01:02;98096.88;;;9.32;100.00
63715;BME280;49858;48.956;9.076;2023-04-25T02:03:38;98091.88;;;9.18;100.00
63715;BME280;49858;48.956;9.076;2023-04-25T02:06:12;98100.41;;;8.94;100.00
63715;BME280;49858;48.956;9.076;2023-04-25T02:08:43;98098.00;;;8.92;100.00
63715;BME280;49858;48.956;9.076;2023-04-25T02:11:13;98092.72;;;9.03;100.00
63715;BME280;49858;48.956;9.076;2023-04-25T02:13:47;98101.78;;;10.34;100.00
63715;BME280;49858;48.956;9.076;2023-04-25T02:16:32;98095.56;;;10.37;100.00
63715;BME280;49858;48.956;9.076;2023-04-25T02:19:00;98093.53;;;10.34;100.00
63715;BME280;49858;48.956;9.076;2023-04-25T02:21:29;98098.69;;;9.90;100.00
63715;BME280;49858;48.956;9.076;2023-04-25T02:23:58;98094.75;;;9.68;100.00
63715;BME280;49858;48.956;9.076;2023-04-25T02:26:31;98093.19;;;9.05;100.00
63715;BME280;49858;48.956;9.076;2023-04-25T02:28:59;98090.94;;;9.11;100.00
63715;BME280;49858;48.956;9.076;2023-04-25T02:31:27;98105.81;;;8.90;100.00
63715;BME280;49858;48.956;9.076;2023-04-25T02:33:57;98097.63;;;8.75;100.00
63715;BME280;49858;48.956;9.076;2023-04-25T02:36:26;98101.34;;;9.02;100.00
63715;BME280;49858;48.956;9.076;2023-04-25T02:38:54;98096.50;;;8.95;100.00
63715;BME280;49858;48.956;9.076;2023-04-25T02:41:21;98095.94;;;9.05;100.00
63715;BME280;49858;48.956;9.076;2023-04-25T02:43:50;98088.06;;;9.23;100.00
63715;BME280;49858;48.956;9.076;2023-04-25T02:46:18;98083.28;;;9.20;100.00
63715;BME280;49858;48.956;9.076;2023-04-25T02:49:03;98086.41;;;9.18;100.00
63715;BME280;49858;48.956;9.076;2023-04-25T02:51:31;98088.47;;;9.06;100.00
63715;BME280;49858;48.956;9.076;2023-04-25T02:53:59;98084.00;;;9.17;100.00
63715;BME280;49858;48.956;9.076;2023-04-25T02:56:27;98079.84;;;9.04;100.00
63715;BME280;49858;48.956;9.076;2023-04-25T02:58:57;98081.03;;;9.06;100.00
63715;BME280;49858;48.956;9.076;2023-04-25T03:01:25;98080.53;;;9.20;100.00
63715;BME280;49858;48.956;9.076;2023-04-25T03:03:53;98080.84;;;9.15;100.00
63715;BME280;49858;48.956;9.076;2023-04-25T03:06:21;98069.28;;;9.06;100.00
63715;BME280;49858;48.956;9.076;2023-04-25T03:08:49;98081.09;;;8.71;100.00
63715;BME280;49858;48.956;9.076;2023-04-25T03:11:17;98082.22;;;9.05;100.00
63715;BME280;49858;48.956;9.076;2023-04-25T03:13:46;98077.44;;;8.83;100.00
63715;BME280;49858;48.956;9.076;2023-04-25T03:16:16;98084.44;;;8.80;100.00
63715;BME280;49858;48.956;9.076;2023-04-25T03:18:44;98071.31;;;8.89;100.00
63715;BME280;49858;48.956;9.076;2023-04-25T03:21:11;98075.84;;;9.01;100.00
63715;BME280;49858;48.956;9.076;2023-04-25T03:23:39;98071.31;;;8.89;100.00
63715;BME280;49858;48.956;9.076;2023-04-25T03:26:07;98071.81;;;9.14;100.00
63715;BME280;49858;48.956;9.076;2023-04-25T03:28:35;98074.47;;;8.91;100.00
63715;BME280;49858;48.956;9.076;2023-04-25T03:31:03;98080.94;;;8.64;100.00
63715;BME280;49858;48.956;9.076;2023-04-25T03:33:32;98073.31;;;8.73;100.00
63715;BME280;49858;48.956;9.076;2023-04-25T03:36:00;98070.84;;;8.68;100.00
63715;BME280;49858;48.956;9.076;2023-04-25T03:38:29;98068.34;;;8.98;100.00
63715;BME280;49858;48.956;9.076;2023-04-25T03:40:57;98067.53;;;8.78;100.00
63715;BME280;49858;48.956;9.076;2023-04-25T03:43:39;98078.56;;;8.62;100.00
63715;BME280;49858;48.956;9.076;2023-04-25T03:46:11;98072.66;;;8.80;100.00
63715;BME280;49858;48.956;9.076;2023-04-25T03:48:41;98075.56;;;8.87;100.00
63715;BME280;49858;48.956;9.076;2023-04-25T03:51:14;98071.22;;;9.05;100.00
63715;BME280;49858;48.956;9.076;2023-04-25T03:53:43;98075.47;;;9.03;100.00
63715;BME280;49858;48.956;9.076;2023-04-25T03:56:14;98076.28;;;9.03;100.00
63715;BME280;49858;48.956;9.076;2023-04-25T03:58:44;98078.31;;;9.06;100.00
63715;BME280;49858;48.956;9.076;2023-04-25T04:01:16;98077.88;;;8.85;100.00
63715;BME280;49858;48.956;9.076;2023-04-25T04:03:45;98067.84;;;8.92;100.00
63715;BME280;49858;48.956;9.076;2023-04-25T04:06:16;98077.22;;;9.11;100.00
63715;BME280;49858;48.956;9.076;2023-04-25T04:08:48;98072.03;;;9.06;100.00
63715;BME280;49858;48.956;9.076;2023-04-25T04:11:16;98071.94;;;9.02;100.00
63715;BME280;49858;48.956;9.076;2023-04-25T04:13:44;98077.50;;;8.86;100.00
63715;BME280;49858;48.956;9.076;2023-04-25T04:16:12;98070.44;;;9.05;100.00
63715;BME280;49858;48.956;9.076;2023-04-25T04:18:40;98074.31;;;8.84;100.00
63715;BME280;49858;48.956;9.076;2023-04-25T04:21:09;98077.81;;;9.01;100.00
63715;BME280;49858;48.956;9.076;2023-04-25T04:23:39;98078.22;;;9.03;100.00
63715;BME280;49858;48.956;9.076;2023-04-25T04:26:09;98071.59;;;9.04;100.00
63715;BME280;49858;48.956;9.076;2023-04-25T04:29:00;98077.34;;;9.80;100.00
63715;BME280;49858;48.956;9.076;2023-04-25T04:31:39;98076.44;;;9.53;100.00
63715;BME280;49858;48.956;9.076;2023-04-25T04:34:07;98073.84;;;9.83;100.00
63715;BME280;49858;48.956;9.076;2023-04-25T04:36:37;98077.16;;;9.50;100.00
63715;BME280;49858;48.956;9.076;2023-04-25T04:39:06;98083.44;;;9.69;100.00
63715;BME280;49858;48.956;9.076;2023-04-25T04:41:41;98091.06;;;8.99;100.00
63715;BME280;49858;48.956;9.076;2023-04-25T04:44:13;98094.25;;;9.20;100.00
63715;BME280;49858;48.956;9.076;2023-04-25T04:46:48;98092.69;;;9.19;100.00
63715;BME280;49858;48.956;9.076;2023-04-25T04:49:37;98090.06;;;9.07;100.00
63715;BME280;49858;48.956;9.076;2023-04-25T04:52:26;98102.88;;;8.99;100.00
63715;BME280;49858;48.956;9.076;2023-04-25T04:55:14;98103.78;;;9.26;100.00
63715;BME280;49858;48.956;9.076;2023-04-25T04:57:55;98107.84;;;9.13;100.00
63715;BME280;49858;48.956;9.076;2023-04-25T05:00:35;98105.41;;;8.73;100.00
63715;BME280;49858;48.956;9.076;2023-04-25T05:03:24;98116.03;;;8.93;100.00
63715;BME280;49858;48.956;9.076;2023-04-25T05:06:12;98118.56;;;8.83;100.00
63715;BME280;49858;48.956;9.076;2023-04-25T05:09:05;98114.88;;;9.53;100.00
63715;BME280;49858;48.956;9.076;2023-04-25T05:12:02;98111.44;;;9.36;100.00
63715;BME280;49858;48.956;9.076;2023-04-25T05:14:48;98104.03;;;9.17;100.00
63715;BME280;49858;48.956;9.076;2023-04-25T05:17:34;98109.31;;;8.72;100.00
63715;BME280;49858;48.956;9.076;2023-04-25T05:20:11;98114.19;;;8.98;100.00
63715;BME280;49858;48.956;9.076;2023-04-25T05:23:09;98108.09;;;8.88;100.00
63715;BME280;49858;48.956;9.076;2023-04-25T05:26:05;98104.38;;;8.96;100.00
63715;BME280;49858;48.956;9.076;2023-04-25T05:28:58;98111.09;;;9.18;100.00
63715;BME280;49858;48.956;9.076;2023-04-25T05:31:59;98105.41;;;8.73;100.00
63715;BME280;49858;48.956;9.076;2023-04-25T05:34:27;98107.09;;;9.16;100.00
63715;BME280;49858;48.956;9.076;2023-04-25T05:36:58;98110.78;;;9.43;100.00
63715;BME280;49858;48.956;9.076;2023-04-25T05:39:27;98106.50;;;9.88;100.00
63715;BME280;49858;48.956;9.076;2023-04-25T05:42:25;98110.09;;;10.38;100.00
63715;BME280;49858;48.956;9.076;2023-04-25T05:45:16;98113.28;;;9.94;100.00
63715;BME280;49858;48.956;9.076;2023-04-25T05:48:10;98114.63;;;9.00;100.00
63715;BME280;49858;48.956;9.076;2023-04-25T05:50:48;98110.84;;;9.89;100.00
63715;BME280;49858;48.956;9.076;2023-04-25T05:53:45;98117.06;;;9.86;100.00
63715;BME280;49858;48.956;9.076;2023-04-25T05:56:14;98114.69;;;10.07;100.00
63715;BME280;49858;48.956;9.076;2023-04-25T05:58:43;98114.31;;;10.85;100.00
63715;BME280;49858;48.956;9.076;2023-04-25T06:01:12;98114.63;;;11.10;100.00
63715;BME280;49858;48.956;9.076;2023-04-25T06:03:40;98105.25;;;11.11;100.00
63715;BME280;49858;48.956;9.076;2023-04-25T06:06:11;98117.16;;;10.16;100.00
63715;BME280;49858;48.956;9.076;2023-04-25T06:08:39;98115.59;;;10.15;100.00
63715;BME280;49858;48.956;9.076;2023-04-25T06:11:10;98119.94;;;9.93;100.00
63715;BME280;49858;48.956;9.076;2023-04-25T06:13:40;98123.53;;;9.55;100.00
63715;BME280;49858;48.956;9.076;2023-04-25T06:16:09;98115.97;;;10.89;100.00
63715;BME280;49858;48.956;9.076;2023-04-25T06:18:37;98115.88;;;9.64;100.00
63715;BME280;49858;48.956;9.076;2023-04-25T06:21:05;98105.97;;;10.78;100.00
63715;BME280;49858;48.956;9.076;2023-04-25T06:23:33;98100.66;;;10.92;100.00
63715;BME280;49858;48.956;9.076;2023-04-25T06:26:03;98104.53;;;10.34;100.00
63715;BME280;49858;48.956;9.076;2023-04-25T06:28:33;98108.97;;;11.29;100.00
63715;BME280;49858;48.956;9.076;2023-04-25T06:31:01;98101.69;;;10.54;100.00
63715;BME280;49858;48.956;9.076;2023-04-25T06:33:30;98108.50;;;9.91;100.00
63715;BME280;49858;48.956;9.076;2023-04-25T06:35:58;98111.38;;;9.33;100.00
63715;BME280;49858;48.956;9.076;2023-04-25T06:38:27;98106.53;;;9.68;100.00
63715;BME280;49858;48.956;9.076;2023-04-25T06:40:56;98105.38;;;10.38;100.00
63715;BME280;49858;48.956;9.076;2023-04-25T06:43:27;98111.94;;;10.83;100.00
63715;BME280;49858;48.956;9.076;2023-04-25T06:46:21;98109.66;;;9.67;100.00
63715;BME280;49858;48.956;9.076;2023-04-25T06:48:50;98109.81;;;9.74;100.00
63715;BME280;49858;48.956;9.076;2023-04-25T06:51:19;98112.47;;;9.70;100.00
63715;BME280;49858;48.956;9.076;2023-04-25T06:53:50;98106.75;;;10.25;100.00
63715;BME280;49858;48.956;9.076;2023-04-25T06:56:27;98106.88;;;11.15;100.00
63715;BME280;49858;48.956;9.076;2023-04-25T06:59:02;98108.22;;;10.98;100.00
63715;BME280;49858;48.956;9.076;2023-04-25T07:01:38;98107.16;;;11.07;100.00
63715;BME280;49858;48.956;9.076;2023-04-25T07:04:15;98113.31;;;10.43;100.00
63715;BME280;49858;48.956;9.076;2023-04-25T07:06:48;98112.38;;;11.52;100.00
63715;BME280;49858;48.956;9.076;2023-04-25T07:09:21;98102.22;;;12.42;100.00
63715;BME280;49858;48.956;9.076;2023-04-25T07:11:50;98114.63;;;12.14;100.00
63715;BME280;49858;48.956;9.076;2023-04-25T07:14:18;98106.88;;;12.89;100.00
63715;BME280;49858;48.956;9.076;2023-04-25T07:16:47;98114.28;;;12.78;100.00
63715;BME280;49858;48.956;9.076;2023-04-25T07:19:18;98114.72;;;12.80;100.00
63715;BME280;49858;48.956;9.076;2023-04-25T07:21:45;98114.84;;;13.05;100.00
63715;BME280;49858;48.956;9.076;2023-04-25T07:24:13;98114.09;;;13.15;100.00
63715;BME280;49858;48.956;9.076;2023-04-25T07:26:45;98121.03;;;13.68;100.00
63715;BME280;49858;48.956;9.076;2023-04-25T07:29:27;98117.97;;;13.00;100.00
63715;BME280;49858;48.956;9.076;2023-04-25T07:31:58;98117.47;;;12.25;100.00
63715;BME280;49858;48.956;9.076;2023-04-25T07:34:28;98127.59;;;12.65;100.00
63715;BME280;49858;48.956;9.076;2023-04-25T07:36:56;98134.88;;;12.91;100.00
63715;BME280;49858;48.956;9.076;2023-04-25T07:39:30;98134.09;;;11.24;100.00
63715;BME280;49858;48.956;9.076;2023-04-25T07:41:59;98128.75;;;12.09;100.00
63715;BME280;49858;48.956;9.076;2023-04-25T07:44:28;98129.25;;;12.73;100.00
63715;BME280;49858;48.956;9.076;2023-04-25T07:47:00;98124.63;;;12.92;100.00
63715;BME280;49858;48.956;9.076;2023-04-25T07:49:32;98125.53;;;13.17;100.00
63715;BME280;49858;48.956;9.076;2023-04-25T07:52:04;98133.56;;;13.44;100.00
63715;BME280;49858;48.956;9.076;2023-04-25T07:54:35;98132.34;;;13.27;100.00
63715;BME280;49858;48.956;9.076;2023-04-25T07:57:15;98140.63;;;13.27;100.00
63715;BME280;49858;48.956;9.076;2023-04-25T08:00:01;98142.22;;;13.35;100.00
63715;BME280;49858;48.956;9.076;2023-04-25T08:02:39;98141.25;;;13.06;100.00
63715;BME280;49858;48.956;9.076;2023-04-25T08:05:16;98157.69;;;12.81;100.00
63715;BME280;49858;48.956;9.076;2023-04-25T08:07:59;98150.22;;;12.89;100.00
63715;BME280;49858;48.956;9.076;2023-04-25T08:10:28;98151.97;;;12.52;100.00
63715;BME280;49858;48.956;9.076;2023-04-25T08:12:56;98153.72;;;13.44;100.00
63715;BME280;49858;48.956;9.076;2023-04-25T08:15:24;98161.91;;;12.64;100.00
63715;BME280;49858;48.956;9.076;2023-04-25T08:17:53;98159.22;;;13.37;100.00
63715;BME280;49858;48.956;9.076;2023-04-25T08:20:25;98162.47;;;13.68;100.00
63715;BME280;49858;48.956;9.076;2023-04-25T08:22:55;98170.47;;;13.07;100.00
63715;BME280;49858;48.956;9.076;2023-04-25T08:25:36;98168.38;;;13.63;100.00
63715;BME280;49858;48.956;9.076;2023-04-25T08:28:05;98184.25;;;13.80;100.00
63715;BME280;49858;48.956;9.076;2023-04-25T08:30:36;98181.00;;;13.57;100.00
63715;BME280;49858;48.956;9.076;2023-04-25T08:33:06;98188.78;;;13.33;100.00
63715;BME280;49858;48.956;9.076;2023-04-25T08:35:54;98194.34;;;13.44;100.00
63715;BME280;49858;48.956;9.076;2023-04-25T08:38:23;98200.44;;;13.85;100.00
63715;BME280;49858;48.956;9.076;2023-04-25T08:40:53;98203.50;;;12.89;100.00
63715;BME280;49858;48.956;9.076;2023-04-25T08:43:23;98205.47;;;12.92;100.00
63715;BME280;49858;48.956;9.076;2023-04-25T08:45:55;98207.19;;;13.15;100.00
63715;BME280;49858;48.956;9.076;2023-04-25T08:48:36;98215.53;;;12.67;100.00
63715;BME280;49858;48.956;9.076;2023-04-25T08:51:07;98214.75;;;12.70;100.00
63715;BME280;49858;48.956;9.076;2023-04-25T08:53:38;98215.00;;;12.50;100.00
63715;BME280;49858;48.956;9.076;2023-04-25T08:56:12;98220.38;;;12.81;100.00
63715;BME280;49858;48.956;9.076;2023-04-25T08:58:40;98217.81;;;13.09;100.00
63715;BME280;49858;48.956;9.076;2023-04-25T09:01:08;98222.81;;;12.45;100.00
63715;BME280;49858;48.956;9.076;2023-04-25T09:03:45;98223.84;;;12.70;100.00
63715;BME280;49858;48.956;9.076;2023-04-25T09:06:16;98223.69;;;12.52;100.00
63715;BME280;49858;48.956;9.076;2023-04-25T09:08:49;98226.47;;;13.04;100.00
63715;BME280;49858;48.956;9.076;2023-04-25T09:11:18;98230.00;;;12.53;100.00
63715;BME280;49858;48.956;9.076;2023-04-25T09:14:10;98237.81;;;13.50;100.00
63715;BME280;49858;48.956;9.076;2023-04-25T09:17:00;98251.97;;;13.45;100.00
63715;BME280;49858;48.956;9.076;2023-04-25T09:19:48;98246.97;;;13.62;100.00
63715;BME280;49858;48.956;9.076;2023-04-25T09:22:27;98246.25;;;13.86;100.00
63715;BME280;49858;48.956;9.076;2023-04-25T09:24:54;98247.91;;;13.98;100.00
63715;BME280;49858;48.956;9.076;2023-04-25T09:27:26;98248.34;;;14.14;100.00
63715;BME280;49858;48.956;9.076;2023-04-25T09:30:04;98254.88;;;13.04;100.00
63715;BME280;49858;48.956;9.076;2023-04-25T09:32:56;98261.44;;;12.45;100.00
63715;BME280;49858;48.956;9.076;2023-04-25T09:35:25;98282.09;;;11.31;100.00
63715;BME280;49858;48.956;9.076;2023-04-25T09:37:59;98285.59;;;10.78;100.00
63715;BME280;49858;48.956;9.076;2023-04-25T09:40:46;98299.88;;;10.41;100.00
63715;BME280;49858;48.956;9.076;2023-04-25T09:43:24;98303.06;;;10.89;100.00
63715;BME280;49858;48.956;9.076;2023-04-25T09:45:54;98310.38;;;10.36;100.00
63715;BME280;49858;48.956;9.076;2023-04-25T09:48:27;98308.09;;;10.61;100.00
63715;BME280;49858;48.956;9.076;2023-04-25T09:51:06;98315.81;;;10.13;100.00
63715;BME280;49858;48.956;9.076;2023-04-25T09:53:37;98329.34;;;10.02;100.00
63715;BME280;49858;48.956;9.076;2023-04-25T09:56:22;98331.78;;;10.46;100.00
63715;BME280;49858;48.956;9.076;2023-04-25T09:58:50;98341.09;;;10.61;100.00
63715;BME280;49858;48.956;9.076;2023-04-25T10:01:21;98347.53;;;10.49;100.00
63715;BME280;49858;48.956;9.076;2023-04-25T10:04:05;98351.06;;;10.69;100.00
63715;BME280;49858;48.956;9.076;2023-04-25T10:06:53;98352.84;;;10.38;100.00
63715;BME280;49858;48.956;9.076;2023-04-25T10:09:25;98358.91;;;10.09;100.00
63715;BME280;49858;48.956;9.076;2023-04-25T10:11:56;98356.13;;;9.70;100.00
63715;BME280;49858;48.956;9.076;2023-04-25T10:14:24;98360.38;;;9.01;100.00
63715;BME280;49858;48.956;9.076;2023-04-25T10:16:53;98362.69;;;8.55;100.00
63715;BME280;49858;48.956;9.076;2023-04-25T10:19:22;98363.81;;;8.98;100.00
63715;BME280;49858;48.956;9.076;2023-04-25T10:21:56;98366.91;;;9.28;100.00
63715;BME280;49858;48.956;9.076;2023-04-25T10:24:26;98366.66;;;8.41;100.00
63715;BME280;49858;48.956;9.076;2023-04-25T10:26:55;98372.28;;;8.33;100.00
63715;BME280;49858;48.956;9.076;2023-04-25T10:29:24;98377.88;;;8.36;100.00
63715;BME280;49858;48.956;9.076;2023-04-25T10:31:53;98386.72;;;7.77;100.00
63715;BME280;49858;48.956;9.076;2023-04-25T10:34:24;98381.47;;;7.48;100.00
63715;BME280;49858;48.956;9.076;2023-04-25T10:36:53;98382.59;;;7.71;100.00
63715;BME280;49858;48.956;9.076;2023-04-25T10:39:23;98389.47;;;7.65;100.00
63715;BME280;49858;48.956;9.076;2023-04-25T10:41:57;98397.22;;;7.38;100.00
63715;BME280;49858;48.956;9.076;2023-04-25T10:44:26;98399.63;;;7.52;100.00
63715;BME280;49858;48.956;9.076;2023-04-25T10:46:55;98410.44;;;7.73;100.00
63715;BME280;49858;48.956;9.076;2023-04-25T10:49:36;98406.84;;;8.09;100.00
63715;BME280;49858;48.956;9.076;2023-04-25T10:52:12;98417.34;;;7.95;100.00
63715;BME280;49858;48.956;9.076;2023-04-25T10:54:41;98420.44;;;7.93;100.00
63715;BME280;49858;48.956;9.076;2023-04-25T10:57:32;98415.19;;;8.01;100.00
63715;BME280;49858;48.956;9.076;2023-04-25T11:00:09;98418.66;;;7.61;100.00
63715;BME280;49858;48.956;9.076;2023-04-25T11:02:44;98435.75;;;7.70;100.00
63715;BME280;49858;48.956;9.076;2023-04-25T11:05:22;98425.72;;;7.86;100.00
63715;BME280;49858;48.956;9.076;2023-04-25T11:07:51;98426.50;;;8.39;100.00
63715;BME280;49858;48.956;9.076;2023-04-25T11:10:33;98422.75;;;7.91;100.00
63715;BME280;49858;48.956;9.076;2023-04-25T11:13:03;98427.00;;;7.77;100.00
63715;BME280;49858;48.956;9.076;2023-04-25T11:15:31;98432.31;;;7.98;100.00
63715;BME280;49858;48.956;9.076;2023-04-25T11:17:59;98434.59;;;7.83;100.00
63715;BME280;49858;48.956;9.076;2023-04-25T11:20:28;98441.00;;;7.75;100.00
63715;BME280;49858;48.956;9.076;2023-04-25T11:22:57;98440.53;;;7.85;100.00
63715;BME280;49858;48.956;9.076;2023-04-25T11:25:26;98445.31;;;8.01;100.00
63715;BME280;49858;48.956;9.076;2023-04-25T11:27:55;98442.59;;;7.88;100.00
63715;BME280;49858;48.956;9.076;2023-04-25T11:30:25;98446.03;;;7.61;100.00
63715;BME280;49858;48.956;9.076;2023-04-25T11:32:53;98437.09;;;7.88;100.00
63715;BME280;49858;48.956;9.076;2023-04-25T11:35:21;98438.31;;;8.15;100.00
63715;BME280;49858;48.956;9.076;2023-04-25T11:37:52;98441.97;;;8.07;100.00
63715;BME280;49858;48.956;9.076;2023-04-25T11:40:19;98450.09;;;8.04;100.00
63715;BME280;49858;48.956;9.076;2023-04-25T11:42:47;98451.47;;;7.85;100.00
63715;BME280;49858;48.956;9.076;2023-04-25T11:45:15;98452.97;;;7.83;100.00
63715;BME280;49858;48.956;9.076;2023-04-25T11:47:49;98444.44;;;7.72;100.00
63715;BME280;49858;48.956;9.076;2023-04-25T11:50:17;98441.66;;;7.97;100.00
63715;BME280;49858;48.956;9.076;2023-04-25T11:52:46;98443.06;;;8.43;100.00
63715;BME280;49858;48.956;9.076;2023-04-25T11:55:15;98449.34;;;8.31;100.00
63715;BME280;49858;48.956;9.076;2023-04-25T11:57:45;98448.00;;;8.25;100.00
63715;BME280;49858;48.956;9.076;2023-04-25T12:00:16;98446.06;;;8.13;100.00
63715;BME280;49858;48.956;9.076;2023-04-25T12:02:46;98448.25;;;8.20;100.00
63715;BME280;49858;48.956;9.076;2023-04-25T12:05:16;98449.66;;;8.42;100.00
63715;BME280;49858;48.956;9.076;2023-04-25T12:07:47;98448.63;;;8.06;100.00
63715;BME280;49858;48.956;9.076;2023-04-25T12:10:17;98452.03;;;8.56;100.00
63715;BME280;49858;48.956;9.076;2023-04-25T12:12:46;98453.13;;;8.67;100.00
63715;BME280;49858;48.956;9.076;2023-04-25T12:15:15;98457.31;;;8.77;100.00
63715;BME280;49858;48.956;9.076;2023-04-25T12:17:46;98459.38;;;8.95;100.00
63715;BME280;49858;48.956;9.076;2023-04-25T12:20:17;98458.91;;;8.78;100.00
63715;BME280;49858;48.956;9.076;2023-04-25T12:22:47;98458.41;;;8.88;100.00
63715;BME280;49858;48.956;9.076;2023-04-25T12:25:36;98448.31;;;8.92;100.00
63715;BME280;49858;48.956;9.076;2023-04-25T12:28:15;98441.09;;;9.47;100.00
63715;BME280;49858;48.956;9.076;2023-04-25T12:30:53;98452.13;;;9.98;100.00
63715;BME280;49858;48.956;9.076;2023-04-25T12:33:22;98443.63;;;8.92;100.00
63715;BME280;49858;48.956;9.076;2023-04-25T12:35:52;98449.94;;;9.56;100.00
63715;BME280;49858;48.956;9.076;2023-04-25T12:38:24;98455.53;;;8.84;100.00
63715;BME280;49858;48.956;9.076;2023-04-25T12:40:52;98460.59;;;9.42;100.00
63715;BME280;49858;48.956;9.076;2023-04-25T12:43:20;98459.34;;;9.39;100.00
63715;BME280;49858;48.956;9.076;2023-04-25T12:45:48;98465.63;;;9.24;100.00
63715;BME280;49858;48.956;9.076;2023-04-25T12:48:17;98462.44;;;9.54;100.00
63715;BME280;49858;48.956;9.076;2023-04-25T12:50:46;98461.81;;;9.60;100.00
63715;BME280;49858;48.956;9.076;2023-04-25T12:53:17;98458.84;;;10.20;100.00
63715;BME280;49858;48.956;9.076;2023-04-25T12:55:46;98463.38;;;9.77;100.00
63715;BME280;49858;48.956;9.076;2023-04-25T12:58:14;98463.56;;;9.84;100.00
63715;BME280;49858;48.956;9.076;2023-04-25T13:00:42;98468.97;;;10.32;100.00
63715;BME280;49858;48.956;9.076;2023-04-25T13:03:11;98471.03;;;9.52;100.00
63715;BME280;49858;48.956;9.076;2023-04-25T13:05:39;98457.16;;;9.96;100.00
63715;BME280;49858;48.956;9.076;2023-04-25T13:08:07;98462.63;;;9.61;100.00
63715;BME280;49858;48.956;9.076;2023-04-25T13:10:36;98453.34;;;10.36;100.00
63715;BME280;49858;48.956;9.076;2023-04-25T13:13:06;98444.91;;;9.74;100.00
63715;BME280;49858;48.956;9.076;2023-04-25T13:15:33;98454.38;;;9.61;100.00
63715;BME280;49858;48.956;9.076;2023-04-25T13:18:04;98459.97;;;9.48;100.00
63715;BME280;49858;48.956;9.076;2023-04-25T13:20:32;98467.31;;;9.60;100.00
63715;BME280;49858;48.956;9.076;2023-04-25T13:23:00;98464.72;;;9.20;100.00
63715;BME280;49858;48.956;9.076;2023-04-25T13:25:28;98460.41;;;9.35;100.00